sensor_id;sensor_type;location;lat;lon;timestamp;pressure;altitude;pressure_sealevel;temperature;humidity
43217;BME280;60511;42.686;23.300;2022-10-31T00:01:54;95195.56;;;22.90;33.68
43217;BME280;60511;42.686;23.300;2022-10-31T00:03:54;95194.59;;;23.06;33.44
43217;BME280;60511;42.686;23.300;2022-10-31T00:05:55;95195.56;;;22.90;33.96
43217;BME280;60511;42.686;23.300;2022-10-31T00:07:55;95190.81;;;22.74;34.22
43217;BME280;60511;42.686;23.300;2022-10-31T00:09:55;95195.78;;;22.84;33.79
43217;BME280;60511;42.686;23.300;2022-10-31T00:11:55;95195.09;;;22.75;34.27
43217;BME280;60511;42.686;23.300;2022-10-31T00:13:58;95201.78;;;23.02;33.44
43217;BME280;60511;42.686;23.300;2022-10-31T00:15:59;95190.28;;;22.81;33.78
43217;BME280;60511;42.686;23.300;2022-10-31T00:17:59;95198.69;;;22.79;33.84
43217;BME280;60511;42.686;23.300;2022-10-31T00:19:59;95194.75;;;22.77;34.03
43217;BME280;60511;42.686;23.300;2022-10-31T00:22:00;95201.16;;;22.72;34.20
43217;BME280;60511;42.686;23.300;2022-10-31T00:24:00;95201.50;;;22.71;33.93
43217;BME280;60511;42.686;23.300;2022-10-31T00:26:01;95198.63;;;22.55;34.39
43217;BME280;60511;42.686;23.300;2022-10-31T00:28:02;95189.44;;;22.56;34.39
43217;BME280;60511;42.686;23.300;2022-10-31T00:30:02;95190.13;;;22.65;34.40
43217;BME280;60511;42.686;23.300;2022-10-31T00:32:03;95187.13;;;22.79;33.79
43217;BME280;60511;42.686;23.300;2022-10-31T00:34:03;95187.91;;;22.79;33.65
43217;BME280;60511;42.686;23.300;2022-10-31T00:36:04;95196.22;;;22.74;34.06
43217;BME280;60511;42.686;23.300;2022-10-31T00:38:04;95193.16;;;22.76;34.09
43217;BME280;60511;42.686;23.300;2022-10-31T00:40:05;95187.44;;;22.77;33.96
43217;BME280;60511;42.686;23.300;2022-10-31T00:42:05;95187.78;;;22.88;33.83
43217;BME280;60511;42.686;23.300;2022-10-31T00:44:06;95185.66;;;22.94;33.63
43217;BME280;60511;42.686;23.300;2022-10-31T00:46:06;95182.75;;;22.86;33.72
43217;BME280;60511;42.686;23.300;2022-10-31T00:48:06;95183.72;;;22.82;33.95
43217;BME280;60511;42.686;23.300;2022-10-31T00:50:07;95179.16;;;22.95;33.62
43217;BME280;60511;42.686;23.300;2022-10-31T00:52:07;95176.91;;;22.84;34.04
43217;BME280;60511;42.686;23.300;2022-10-31T00:54:07;95179.66;;;22.63;33.96
43217;BME280;60511;42.686;23.300;2022-10-31T00:56:08;95187.41;;;22.65;33.91
43217;BME280;60511;42.686;23.300;2022-10-31T00:58:08;95188.78;;;22.71;33.95
43217;BME280;60511;42.686;23.300;2022-10-31T01:00:08;95194.63;;;22.73;34.17
43217;BME280;60511;42.686;23.300;2022-10-31T01:02:09;95187.78;;;22.88;33.82
43217;BME280;60511;42.686;23.300;2022-10-31T01:04:09;95187.72;;;22.97;33.51
43217;BME280;60511;42.686;23.300;2022-10-31T01:06:10;95183.09;;;22.85;33.75
43217;BME280;60511;42.686;23.300;2022-10-31T01:08:11;95188.56;;;22.64;34.07
43217;BME280;60511;42.686;23.300;2022-10-31T01:10:11;95190.13;;;22.65;34.18
43217;BME280;60511;42.686;23.300;2022-10-31T01:12:12;95194.59;;;22.61;33.91
43217;BME280;60511;42.686;23.300;2022-10-31T01:14:12;95191.94;;;22.73;33.71
43217;BME280;60511;42.686;23.300;2022-10-31T01:16:13;95192.38;;;22.75;33.94
43217;BME280;60511;42.686;23.300;2022-10-31T01:18:14;95192.75;;;22.86;33.96
43217;BME280;60511;42.686;23.300;2022-10-31T01:20:14;95195.09;;;22.75;34.02
43217;BME280;60511;42.686;23.300;2022-10-31T01:22:15;95197.16;;;22.57;34.25
43217;BME280;60511;42.686;23.300;2022-10-31T01:24:15;95202.28;;;22.71;33.71
43217;BME280;60511;42.686;23.300;2022-10-31T01:26:19;95200.91;;;22.65;34.11
43217;BME280;60511;42.686;23.300;2022-10-31T01:28:20;95197.97;;;22.58;34.06
43217;BME280;60511;42.686;23.300;2022-10-31T01:30:20;95193.25;;;22.55;34.37
43217;BME280;60511;42.686;23.300;2022-10-31T01:32:20;95194.84;;;22.68;34.17
43217;BME280;60511;42.686;23.300;2022-10-31T01:34:21;95203.38;;;22.58;34.22
43217;BME280;60511;42.686;23.300;2022-10-31T01:36:25;95198.50;;;22.84;33.97
43217;BME280;60511;42.686;23.300;2022-10-31T01:38:26;95193.66;;;22.90;33.87
43217;BME280;60511;42.686;23.300;2022-10-31T01:40:28;95194.97;;;22.72;34.15
43217;BME280;60511;42.686;23.300;2022-10-31T01:42:29;95200.75;;;22.82;33.95
43217;BME280;60511;42.686;23.300;2022-10-31T01:46:34;95206.13;;;22.82;33.87
43217;BME280;60511;42.686;23.300;2022-10-31T01:48:36;95204.06;;;22.67;33.76
43217;BME280;60511;42.686;23.300;2022-10-31T01:50:36;95205.44;;;22.73;33.81
43217;BME280;60511;42.686;23.300;2022-10-31T01:52:40;95201.66;;;22.86;33.88
43217;BME280;60511;42.686;23.300;2022-10-31T01:54:41;95209.63;;;22.83;33.71
43217;BME280;60511;42.686;23.300;2022-10-31T01:56:44;95204.13;;;22.92;33.49
43217;BME280;60511;42.686;23.300;2022-10-31T01:58:47;95201.66;;;22.86;33.60
43217;BME280;60511;42.686;23.300;2022-10-31T02:00:48;95205.41;;;22.61;34.08
43217;BME280;60511;42.686;23.300;2022-10-31T02:02:50;95205.06;;;22.62;34.19
43217;BME280;60511;42.686;23.300;2022-10-31T02:04:51;95199.31;;;22.52;34.33
43217;BME280;60511;42.686;23.300;2022-10-31T02:07:06;95197.28;;;22.49;34.31
43217;BME280;60511;42.686;23.300;2022-10-31T02:09:08;95196.84;;;22.59;34.25
43217;BME280;60511;42.686;23.300;2022-10-31T02:11:08;95192.03;;;22.64;34.16
43217;BME280;60511;42.686;23.300;2022-10-31T02:13:09;95190.50;;;22.42;34.28
43217;BME280;60511;42.686;23.300;2022-10-31T02:15:10;95192.28;;;22.38;34.45
43217;BME280;60511;42.686;23.300;2022-10-31T02:17:11;95184.94;;;22.60;34.25
43217;BME280;60511;42.686;23.300;2022-10-31T02:19:12;95189.63;;;22.51;34.25
43217;BME280;60511;42.686;23.300;2022-10-31T02:27:40;95202.34;;;22.50;34.47
43217;BME280;60511;42.686;23.300;2022-10-31T02:36:45;95218.00;;;22.69;33.90
43217;BME280;60511;42.686;23.300;2022-10-31T02:38:53;95214.22;;;22.70;33.80
43217;BME280;60511;42.686;23.300;2022-10-31T02:43:10;95211.28;;;22.75;34.11
43217;BME280;60511;42.686;23.300;2022-10-31T02:45:14;95221.13;;;23.04;33.18
43217;BME280;60511;42.686;23.300;2022-10-31T02:47:23;95223.38;;;23.02;33.27
43217;BME280;60511;42.686;23.300;2022-10-31T02:49:34;95222.72;;;23.05;33.26
43217;BME280;60511;42.686;23.300;2022-10-31T02:51:37;95221.50;;;23.15;33.12
43217;BME280;60511;42.686;23.300;2022-10-31T02:53:38;95226.22;;;23.06;33.18
43217;BME280;60511;42.686;23.300;2022-10-31T02:57:39;95230.50;;;23.07;33.32
43217;BME280;60511;42.686;23.300;2022-10-31T02:59:41;95230.72;;;23.14;33.07
43217;BME280;60511;42.686;23.300;2022-10-31T03:06:09;95229.94;;;23.14;33.00
43217;BME280;60511;42.686;23.300;2022-10-31T03:10:17;95238.03;;;23.14;33.35
43217;BME280;60511;42.686;23.300;2022-10-31T03:14:36;95234.56;;;23.13;32.95
43217;BME280;60511;42.686;23.300;2022-10-31T03:16:45;95233.97;;;23.08;33.42
43217;BME280;60511;42.686;23.300;2022-10-31T03:18:49;95232.31;;;23.15;32.92
43217;BME280;60511;42.686;23.300;2022-10-31T03:20:51;95227.81;;;23.07;33.15
43217;BME280;60511;42.686;23.300;2022-10-31T03:22:54;95228.94;;;23.18;32.97
43217;BME280;60511;42.686;23.300;2022-10-31T03:24:55;95235.66;;;23.12;33.35
43217;BME280;60511;42.686;23.300;2022-10-31T03:26:56;95236.38;;;23.21;32.90
43217;BME280;60511;42.686;23.300;2022-10-31T03:28:59;95233.19;;;23.07;33.30
43217;BME280;60511;42.686;23.300;2022-10-31T03:31:01;95244.00;;;23.07;33.31
43217;BME280;60511;42.686;23.300;2022-10-31T03:33:05;95237.72;;;23.15;33.01
43217;BME280;60511;42.686;23.300;2022-10-31T03:35:07;95238.69;;;23.11;33.12
43217;BME280;60511;42.686;23.300;2022-10-31T03:37:08;95244.22;;;23.14;32.92
43217;BME280;60511;42.686;23.300;2022-10-31T03:39:11;95239.50;;;23.11;33.36
43217;BME280;60511;42.686;23.300;2022-10-31T03:41:14;95248.72;;;23.10;33.21
43217;BME280;60511;42.686;23.300;2022-10-31T03:43:16;95247.69;;;23.02;33.44
43217;BME280;60511;42.686;23.300;2022-10-31T03:45:28;95254.47;;;22.75;33.79
43217;BME280;60511;42.686;23.300;2022-10-31T03:47:30;95252.75;;;22.71;33.86
43217;BME280;60511;42.686;23.300;2022-10-31T03:49:31;95251.72;;;22.63;34.00
43217;BME280;60511;42.686;23.300;2022-10-31T03:53:44;95259.56;;;22.89;33.77
43217;BME280;60511;42.686;23.300;2022-10-31T03:55:50;95265.94;;;23.05;33.26
43217;BME280;60511;42.686;23.300;2022-10-31T04:00:28;95263.59;;;22.83;33.57
43217;BME280;60511;42.686;23.300;2022-10-31T04:02:30;95262.41;;;22.72;33.94
43217;BME280;60511;42.686;23.300;2022-10-31T04:04:31;95262.78;;;22.70;33.68
43217;BME280;60511;42.686;23.300;2022-10-31T04:06:33;95263.72;;;22.86;33.74
43217;BME280;60511;42.686;23.300;2022-10-31T04:08:37;95264.28;;;22.59;34.06
43217;BME280;60511;42.686;23.300;2022-10-31T04:10:39;95267.81;;;22.72;33.69
43217;BME280;60511;42.686;23.300;2022-10-31T04:12:41;95265.88;;;22.93;33.62
43217;BME280;60511;42.686;23.300;2022-10-31T04:14:45;95277.56;;;22.97;33.53
43217;BME280;60511;42.686;23.300;2022-10-31T04:16:46;95274.34;;;23.04;33.17
43217;BME280;60511;42.686;23.300;2022-10-31T04:18:46;95269.09;;;23.08;33.29
43217;BME280;60511;42.686;23.300;2022-10-31T04:20:47;95266.25;;;23.04;33.12
43217;BME280;60511;42.686;23.300;2022-10-31T04:22:49;95277.75;;;23.13;33.06
43217;BME280;60511;42.686;23.300;2022-10-31T04:24:50;95276.94;;;23.13;33.10
43217;BME280;60511;42.686;23.300;2022-10-31T04:26:50;95274.25;;;23.13;32.92
43217;BME280;60511;42.686;23.300;2022-10-31T04:28:50;95275.84;;;23.14;32.86
43217;BME280;60511;42.686;23.300;2022-10-31T04:30:51;95277.97;;;23.08;33.27
43217;BME280;60511;42.686;23.300;2022-10-31T04:32:51;95275.72;;;23.10;32.95
43217;BME280;60511;42.686;23.300;2022-10-31T04:34:51;95276.03;;;23.09;33.00
43217;BME280;60511;42.686;23.300;2022-10-31T04:36:52;95272.13;;;23.06;33.18
43217;BME280;60511;42.686;23.300;2022-10-31T04:38:52;95277.72;;;23.01;33.45
43217;BME280;60511;42.686;23.300;2022-10-31T04:40:52;95272.13;;;23.06;33.11
43217;BME280;60511;42.686;23.300;2022-10-31T04:42:52;95277.72;;;23.01;33.18
43217;BME280;60511;42.686;23.300;2022-10-31T04:44:53;95276.41;;;23.07;33.05
43217;BME280;60511;42.686;23.300;2022-10-31T04:46:53;95276.41;;;23.07;33.01
43217;BME280;60511;42.686;23.300;2022-10-31T04:48:53;95277.31;;;23.11;32.96
43217;BME280;60511;42.686;23.300;2022-10-31T04:50:58;95277.31;;;23.11;32.99
43217;BME280;60511;42.686;23.300;2022-10-31T04:52:58;95280.78;;;23.12;33.10
43217;BME280;60511;42.686;23.300;2022-10-31T04:54:58;95286.66;;;23.14;32.89
43217;BME280;60511;42.686;23.300;2022-10-31T04:56:58;95289.22;;;23.10;33.01
43217;BME280;60511;42.686;23.300;2022-10-31T04:58:59;95289.00;;;23.03;33.30
43217;BME280;60511;42.686;23.300;2022-10-31T05:00:59;95290.69;;;23.08;33.03
43217;BME280;60511;42.686;23.300;2022-10-31T05:02:59;95292.59;;;23.07;33.09
43217;BME280;60511;42.686;23.300;2022-10-31T05:05:00;95293.06;;;23.09;33.08
43217;BME280;60511;42.686;23.300;2022-10-31T05:07:00;95294.50;;;23.06;33.11
43217;BME280;60511;42.686;23.300;2022-10-31T05:09:00;95295.97;;;23.04;33.07
43217;BME280;60511;42.686;23.300;2022-10-31T05:11:01;95301.56;;;22.99;33.27
43217;BME280;60511;42.686;23.300;2022-10-31T05:13:02;95303.41;;;23.07;32.98
43217;BME280;60511;42.686;23.300;2022-10-31T05:15:03;95300.81;;;23.11;32.90
43217;BME280;60511;42.686;23.300;2022-10-31T05:17:03;95302.00;;;23.01;33.18
43217;BME280;60511;42.686;23.300;2022-10-31T05:19:04;95303.63;;;22.81;33.64
43217;BME280;60511;42.686;23.300;2022-10-31T05:21:04;95305.19;;;22.82;33.58
43217;BME280;60511;42.686;23.300;2022-10-31T05:23:04;95305.91;;;22.91;33.30
43217;BME280;60511;42.686;23.300;2022-10-31T05:25:05;95313.00;;;22.96;33.17
43217;BME280;60511;42.686;23.300;2022-10-31T05:27:05;95310.09;;;23.01;33.26
43217;BME280;60511;42.686;23.300;2022-10-31T05:29:05;95310.09;;;23.01;33.40
43217;BME280;60511;42.686;23.300;2022-10-31T05:31:05;95312.16;;;23.04;33.10
43217;BME280;60511;42.686;23.300;2022-10-31T05:33:06;95314.53;;;23.05;33.06
43217;BME280;60511;42.686;23.300;2022-10-31T05:35:07;95316.53;;;23.09;32.90
43217;BME280;60511;42.686;23.300;2022-10-31T05:37:10;95325.97;;;23.02;33.18
43217;BME280;60511;42.686;23.300;2022-10-31T05:39:10;95327.03;;;23.10;32.95
43217;BME280;60511;42.686;23.300;2022-10-31T05:41:10;95325.00;;;23.07;33.23
43217;BME280;60511;42.686;23.300;2022-10-31T05:43:11;95322.63;;;23.05;33.03
43217;BME280;60511;42.686;23.300;2022-10-31T05:45:12;95328.81;;;23.06;33.10
43217;BME280;60511;42.686;23.300;2022-10-31T05:47:13;95325.66;;;23.04;33.34
43217;BME280;60511;42.686;23.300;2022-10-31T05:49:13;95325.66;;;23.04;33.07
43217;BME280;60511;42.686;23.300;2022-10-31T05:51:13;95323.72;;;23.04;33.05
43217;BME280;60511;42.686;23.300;2022-10-31T05:53:14;95330.59;;;23.02;33.08
43217;BME280;60511;42.686;23.300;2022-10-31T05:55:14;95327.81;;;23.11;33.04
43217;BME280;60511;42.686;23.300;2022-10-31T05:57:15;95326.25;;;23.10;33.13
43217;BME280;60511;42.686;23.300;2022-10-31T05:59:15;95327.56;;;23.03;33.14
43217;BME280;60511;42.686;23.300;2022-10-31T06:01:15;95335.44;;;23.09;33.11
43217;BME280;60511;42.686;23.300;2022-10-31T06:03:15;95337.59;;;23.03;33.13
43217;BME280;60511;42.686;23.300;2022-10-31T06:05:16;95336.91;;;23.06;33.08
43217;BME280;60511;42.686;23.300;2022-10-31T06:07:16;95353.94;;;22.98;33.26
43217;BME280;60511;42.686;23.300;2022-10-31T06:09:16;95348.38;;;23.03;33.11
43217;BME280;60511;42.686;23.300;2022-10-31T06:11:17;95343.47;;;22.96;33.54
43217;BME280;60511;42.686;23.300;2022-10-31T06:13:17;95348.72;;;23.01;33.14
43217;BME280;60511;42.686;23.300;2022-10-31T06:15:17;95351.72;;;23.00;33.31
43217;BME280;60511;42.686;23.300;2022-10-31T06:17:18;95351.56;;;22.96;33.34
43217;BME280;60511;42.686;23.300;2022-10-31T06:19:18;95356.97;;;22.96;33.24
43217;BME280;60511;42.686;23.300;2022-10-31T06:21:18;95360.94;;;22.99;33.60
43217;BME280;60511;42.686;23.300;2022-10-31T06:23:19;95360.88;;;23.08;33.08
43217;BME280;60511;42.686;23.300;2022-10-31T06:25:19;95366.63;;;23.06;33.24
43217;BME280;60511;42.686;23.300;2022-10-31T06:27:19;95372.34;;;23.04;33.30
43217;BME280;60511;42.686;23.300;2022-10-31T06:29:20;95366.00;;;23.00;33.46
43217;BME280;60511;42.686;23.300;2022-10-31T06:31:20;95376.94;;;23.04;33.25
43217;BME280;60511;42.686;23.300;2022-10-31T06:33:20;95368.19;;;23.07;33.16
43217;BME280;60511;42.686;23.300;2022-10-31T06:35:20;95370.34;;;23.14;33.15
43217;BME280;60511;42.686;23.300;2022-10-31T06:37:20;95379.25;;;23.14;33.18
43217;BME280;60511;42.686;23.300;2022-10-31T06:39:21;95385.88;;;23.17;33.03
43217;BME280;60511;42.686;23.300;2022-10-31T06:41:21;95387.00;;;23.16;33.07
43217;BME280;60511;42.686;23.300;2022-10-31T06:43:21;95385.41;;;23.15;33.07
43217;BME280;60511;42.686;23.300;2022-10-31T06:45:22;95380.84;;;23.15;33.11
43217;BME280;60511;42.686;23.300;2022-10-31T06:47:22;95383.41;;;23.12;33.16
43217;BME280;60511;42.686;23.300;2022-10-31T06:49:22;95376.09;;;23.12;33.36
43217;BME280;60511;42.686;23.300;2022-10-31T06:51:22;95383.06;;;23.13;33.46
43217;BME280;60511;42.686;23.300;2022-10-31T06:53:23;95385.56;;;23.18;33.24
43217;BME280;60511;42.686;23.300;2022-10-31T06:55:23;95380.38;;;23.13;33.43
43217;BME280;60511;42.686;23.300;2022-10-31T06:57:24;95378.22;;;23.19;33.40
43217;BME280;60511;42.686;23.300;2022-10-31T06:59:24;95384.31;;;23.16;33.35
43217;BME280;60511;42.686;23.300;2022-10-31T07:01:24;95381.47;;;23.12;33.32
43217;BME280;60511;42.686;23.300;2022-10-31T07:03:25;95384.44;;;23.19;33.20
43217;BME280;60511;42.686;23.300;2022-10-31T07:05:25;95389.41;;;23.17;33.14
43217;BME280;60511;42.686;23.300;2022-10-31T07:07:26;95392.66;;;23.23;33.15
43217;BME280;60511;42.686;23.300;2022-10-31T07:09:26;95383.78;;;23.22;33.33
43217;BME280;60511;42.686;23.300;2022-10-31T07:11:27;95386.47;;;23.22;33.08
43217;BME280;60511;42.686;23.300;2022-10-31T07:13:27;95389.44;;;23.30;33.12
43217;BME280;60511;42.686;23.300;2022-10-31T07:15:28;95388.53;;;23.25;33.15
43217;BME280;60511;42.686;23.300;2022-10-31T07:17:28;95386.47;;;23.22;33.45
43217;BME280;60511;42.686;23.300;2022-10-31T07:19:28;95379.28;;;23.26;33.13
43217;BME280;60511;42.686;23.300;2022-10-31T07:21:29;95375.13;;;23.29;32.98
43217;BME280;60511;42.686;23.300;2022-10-31T07:23:29;95375.16;;;23.41;32.86
43217;BME280;60511;42.686;23.300;2022-10-31T07:25:29;95367.41;;;23.40;33.11
43217;BME280;60511;42.686;23.300;2022-10-31T07:27:35;95365.94;;;23.42;32.82
43217;BME280;60511;42.686;23.300;2022-10-31T07:29:35;95367.59;;;23.35;32.93
43217;BME280;60511;42.686;23.300;2022-10-31T07:31:35;95363.09;;;23.39;32.79
43217;BME280;60511;42.686;23.300;2022-10-31T07:33:35;95366.59;;;23.39;32.93
43217;BME280;60511;42.686;23.300;2022-10-31T07:35:36;95364.56;;;23.36;33.30
43217;BME280;60511;42.686;23.300;2022-10-31T07:37:36;95367.28;;;23.36;33.12
43217;BME280;60511;42.686;23.300;2022-10-31T07:39:36;95372.00;;;23.39;32.95
43217;BME280;60511;42.686;23.300;2022-10-31T07:41:37;95367.41;;;23.40;32.88
43217;BME280;60511;42.686;23.300;2022-10-31T07:43:37;95367.28;;;23.36;33.04
43217;BME280;60511;42.686;23.300;2022-10-31T07:45:37;95360.19;;;23.32;33.20
43217;BME280;60511;42.686;23.300;2022-10-31T07:47:38;95365.03;;;23.38;33.05
43217;BME280;60511;42.686;23.300;2022-10-31T07:49:39;95366.50;;;23.36;32.92
43217;BME280;60511;42.686;23.300;2022-10-31T07:51:39;95356.38;;;23.45;32.89
43217;BME280;60511;42.686;23.300;2022-10-31T07:53:39;95356.78;;;23.35;33.19
43217;BME280;60511;42.686;23.300;2022-10-31T07:55:39;95351.66;;;23.42;33.17
43217;BME280;60511;42.686;23.300;2022-10-31T07:57:40;95362.66;;;23.37;33.15
43217;BME280;60511;42.686;23.300;2022-10-31T07:59:40;95363.56;;;23.41;33.02
43217;BME280;60511;42.686;23.300;2022-10-31T08:01:40;95360.72;;;23.37;33.11
43217;BME280;60511;42.686;23.300;2022-10-31T08:03:41;95366.22;;;23.29;33.32
43217;BME280;60511;42.686;23.300;2022-10-31T08:05:41;95369.28;;;23.39;33.12
43217;BME280;60511;42.686;23.300;2022-10-31T08:07:42;95363.44;;;23.50;33.12
43217;BME280;60511;42.686;23.300;2022-10-31T08:09:42;95370.91;;;23.53;33.04
43217;BME280;60511;42.686;23.300;2022-10-31T08:11:42;95365.38;;;23.49;33.06
43217;BME280;60511;42.686;23.300;2022-10-31T08:13:43;95364.00;;;23.43;33.29
43217;BME280;60511;42.686;23.300;2022-10-31T08:15:43;95365.06;;;23.51;33.09
43217;BME280;60511;42.686;23.300;2022-10-31T08:17:44;95360.66;;;23.46;33.04
43217;BME280;60511;42.686;23.300;2022-10-31T08:19:44;95363.44;;;23.37;33.25
43217;BME280;60511;42.686;23.300;2022-10-31T08:21:49;95368.97;;;23.41;33.20
43217;BME280;60511;42.686;23.300;2022-10-31T08:23:58;95361.41;;;23.34;33.16
43217;BME280;60511;42.686;23.300;2022-10-31T08:26:02;95377.63;;;23.34;33.51
43217;BME280;60511;42.686;23.300;2022-10-31T08:28:10;95364.91;;;23.47;33.00
43217;BME280;60511;42.686;23.300;2022-10-31T08:30:11;95359.75;;;23.42;33.31
43217;BME280;60511;42.686;23.300;2022-10-31T08:32:11;95370.75;;;23.37;33.54
43217;BME280;60511;42.686;23.300;2022-10-31T08:34:11;95364.78;;;23.43;33.40
43217;BME280;60511;42.686;23.300;2022-10-31T08:36:12;95364.25;;;23.38;33.42
43217;BME280;60511;42.686;23.300;2022-10-31T08:38:12;95367.16;;;23.45;33.14
43217;BME280;60511;42.686;23.300;2022-10-31T08:40:12;95364.47;;;23.45;33.35
43217;BME280;60511;42.686;23.300;2022-10-31T08:42:13;95364.03;;;23.55;33.12
43217;BME280;60511;42.686;23.300;2022-10-31T08:44:13;95368.44;;;23.60;32.89
43217;BME280;60511;42.686;23.300;2022-10-31T08:46:15;95358.88;;;23.50;33.04
43217;BME280;60511;42.686;23.300;2022-10-31T08:48:16;95356.50;;;23.49;33.34
43217;BME280;60511;42.686;23.300;2022-10-31T08:50:17;95364.50;;;23.57;33.27
43217;BME280;60511;42.686;23.300;2022-10-31T08:52:17;95366.66;;;23.64;33.00
43217;BME280;60511;42.686;23.300;2022-10-31T08:54:17;95364.72;;;23.52;33.08
43217;BME280;60511;42.686;23.300;2022-10-31T08:56:17;95366.09;;;23.58;33.29
43217;BME280;60511;42.686;23.300;2022-10-31T08:58:18;95358.19;;;23.65;33.13
43217;BME280;60511;42.686;23.300;2022-10-31T09:00:19;95364.03;;;23.55;33.19
43217;BME280;60511;42.686;23.300;2022-10-31T09:02:19;95360.75;;;23.50;33.27
43217;BME280;60511;42.686;23.300;2022-10-31T09:04:19;95363.16;;;23.63;33.24
43217;BME280;60511;42.686;23.300;2022-10-31T09:06:19;95363.25;;;23.55;33.36
43217;BME280;60511;42.686;23.300;2022-10-31T09:08:20;95366.75;;;23.55;32.92
43217;BME280;60511;42.686;23.300;2022-10-31T09:10:20;95364.03;;;23.55;33.31
43217;BME280;60511;42.686;23.300;2022-10-31T09:12:20;95359.78;;;23.54;33.38
43217;BME280;60511;42.686;23.300;2022-10-31T09:14:20;95355.25;;;23.46;33.34
43217;BME280;60511;42.686;23.300;2022-10-31T09:16:21;95358.50;;;23.52;33.38
43217;BME280;60511;42.686;23.300;2022-10-31T09:18:21;95351.75;;;23.45;33.45
43217;BME280;60511;42.686;23.300;2022-10-31T09:20:22;95349.84;;;23.46;33.36
43217;BME280;60511;42.686;23.300;2022-10-31T09:22:22;95355.56;;;23.32;33.68
43217;BME280;60511;42.686;23.300;2022-10-31T09:24:23;95358.13;;;23.29;33.72
43217;BME280;60511;42.686;23.300;2022-10-31T09:26:23;95351.41;;;23.47;33.55
43217;BME280;60511;42.686;23.300;2022-10-31T09:28:25;95341.75;;;23.46;33.64
43217;BME280;60511;42.686;23.300;2022-10-31T09:30:26;95345.91;;;23.56;33.38
43217;BME280;60511;42.686;23.300;2022-10-31T09:32:27;95351.09;;;23.49;33.46
43217;BME280;60511;42.686;23.300;2022-10-31T09:34:27;95353.47;;;23.50;33.47
43217;BME280;60511;42.686;23.300;2022-10-31T09:36:27;95349.88;;;23.58;33.29
43217;BME280;60511;42.686;23.300;2022-10-31T09:38:28;95348.97;;;23.54;33.64
43217;BME280;60511;42.686;23.300;2022-10-31T09:40:33;95352.56;;;23.46;33.77
43217;BME280;60511;42.686;23.300;2022-10-31T09:42:41;95353.16;;;23.64;33.32
43217;BME280;60511;42.686;23.300;2022-10-31T09:51:16;95341.84;;;23.62;33.25
43217;BME280;60511;42.686;23.300;2022-10-31T09:57:33;95345.94;;;23.68;33.51
43217;BME280;60511;42.686;23.300;2022-10-31T09:59:35;95337.03;;;23.67;33.49
43217;BME280;60511;42.686;23.300;2022-10-31T10:03:45;95335.78;;;23.65;33.27
43217;BME280;60511;42.686;23.300;2022-10-31T10:05:50;95338.81;;;23.63;33.48
43217;BME280;60511;42.686;23.300;2022-10-31T10:07:54;95333.22;;;23.69;33.50
43217;BME280;60511;42.686;23.300;2022-10-31T10:09:59;95330.13;;;23.58;33.49
43217;BME280;60511;42.686;23.300;2022-10-31T10:14:10;95324.78;;;23.70;33.67
43217;BME280;60511;42.686;23.300;2022-10-31T10:22:21;95309.22;;;23.67;33.45
43217;BME280;60511;42.686;23.300;2022-10-31T10:26:40;95310.44;;;23.70;33.66
43217;BME280;60511;42.686;23.300;2022-10-31T10:28:43;95310.44;;;23.70;33.60
43217;BME280;60511;42.686;23.300;2022-10-31T10:30:46;95310.44;;;23.70;33.59
43217;BME280;60511;42.686;23.300;2022-10-31T10:32:54;95300.09;;;23.72;33.52
43217;BME280;60511;42.686;23.300;2022-10-31T10:34:58;95299.56;;;23.66;33.58
43217;BME280;60511;42.686;23.300;2022-10-31T10:37:04;95295.50;;;23.72;33.65
43217;BME280;60511;42.686;23.300;2022-10-31T10:39:11;95291.53;;;23.70;33.63
43217;BME280;60511;42.686;23.300;2022-10-31T10:41:17;95290.19;;;23.63;33.88
43217;BME280;60511;42.686;23.300;2022-10-31T10:45:23;95288.75;;;23.66;33.61
43217;BME280;60511;42.686;23.300;2022-10-31T10:47:44;95281.97;;;23.72;33.62
43217;BME280;60511;42.686;23.300;2022-10-31T10:58:07;95275.09;;;23.75;33.56
43217;BME280;60511;42.686;23.300;2022-10-31T11:00:18;95278.47;;;23.72;33.76
43217;BME280;60511;42.686;23.300;2022-10-31T11:02:21;95277.69;;;23.71;33.76
43217;BME280;60511;42.686;23.300;2022-10-31T11:04:29;95277.25;;;23.69;33.69
43217;BME280;60511;42.686;23.300;2022-10-31T11:06:30;95280.19;;;23.76;33.62
43217;BME280;60511;42.686;23.300;2022-10-31T11:08:34;95268.56;;;23.76;33.67
43217;BME280;60511;42.686;23.300;2022-10-31T11:10:35;95269.13;;;23.69;33.47
43217;BME280;60511;42.686;23.300;2022-10-31T11:12:35;95266.09;;;23.71;33.79
43217;BME280;60511;42.686;23.300;2022-10-31T11:14:42;95263.84;;;23.60;33.83
43217;BME280;60511;42.686;23.300;2022-10-31T11:16:48;95266.66;;;23.76;33.62
43217;BME280;60511;42.686;23.300;2022-10-31T11:18:49;95261.50;;;23.83;33.53
43217;BME280;60511;42.686;23.300;2022-10-31T11:20:52;95262.19;;;23.80;33.58
43217;BME280;60511;42.686;23.300;2022-10-31T11:23:00;95258.22;;;23.78;33.68
43217;BME280;60511;42.686;23.300;2022-10-31T11:25:11;95256.19;;;23.75;33.79
43217;BME280;60511;42.686;23.300;2022-10-31T11:29:22;95255.84;;;23.64;33.67
43217;BME280;60511;42.686;23.300;2022-10-31T11:31:25;95257.09;;;23.66;33.64
43217;BME280;60511;42.686;23.300;2022-10-31T11:35:26;95254.03;;;23.56;33.70
43217;BME280;60511;42.686;23.300;2022-10-31T11:37:27;95247.19;;;23.71;33.85
43217;BME280;60511;42.686;23.300;2022-10-31T11:39:28;95250.56;;;23.80;33.65
43217;BME280;60511;42.686;23.300;2022-10-31T11:41:29;95240.19;;;23.82;33.64
43217;BME280;60511;42.686;23.300;2022-10-31T11:43:31;95241.00;;;23.82;33.63
43217;BME280;60511;42.686;23.300;2022-10-31T11:45:32;95238.75;;;23.84;33.66
43217;BME280;60511;42.686;23.300;2022-10-31T11:47:33;95239.63;;;23.76;33.64